createdAt,value
2023-05-18T00:02:21.080Z,3.90
2023-05-18T00:04:47.888Z,3.78
2023-05-18T00:07:14.782Z,3.63
2023-05-18T00:09:41.503Z,3.78
2023-05-18T00:12:09.882Z,3.60
2023-05-18T00:14:37.367Z,3.65
2023-05-18T00:17:03.961Z,3.50
2023-05-18T00:19:31.320Z,3.60
2023-05-18T00:21:57.982Z,3.70
2023-05-18T00:24:24.887Z,3.67
2023-05-18T00:26:51.841Z,3.60
2023-05-18T00:29:18.487Z,3.35
2023-05-18T00:31:45.823Z,3.45
2023-05-18T00:34:14.305Z,3.75
2023-05-18T00:36:41.812Z,3.50
2023-05-18T00:39:09.376Z,3.70
2023-05-18T00:41:36.326Z,4.35
2023-05-18T00:44:05.184Z,4.07
2023-05-18T00:46:32.642Z,4.03
2023-05-18T00:49:01.778Z,3.72
2023-05-18T00:51:29.542Z,4.03
2023-05-18T00:53:57.625Z,3.53
2023-05-18T00:56:24.980Z,4.05
2023-05-18T00:58:57.280Z,3.42
2023-05-18T01:01:30.852Z,3.88
2023-05-18T01:04:02.471Z,3.38
2023-05-18T01:06:36.171Z,3.88
2023-05-18T01:09:06.876Z,4.10
2023-05-18T01:11:47.187Z,3.65
2023-05-18T01:14:31.935Z,3.70
2023-05-18T01:17:43.838Z,3.63
2023-05-18T01:20:22.860Z,3.55
2023-05-18T01:23:10.150Z,3.30
2023-05-18T01:25:55.189Z,3.70
2023-05-18T01:28:29.746Z,3.73
2023-05-18T01:30:57.938Z,3.33
2023-05-18T01:33:25.543Z,4.07
2023-05-18T01:35:52.718Z,3.78
2023-05-18T01:38:27.927Z,3.60
2023-05-18T01:41:26.815Z,3.90
2023-05-18T01:44:00.179Z,3.73
2023-05-18T01:46:47.485Z,3.65
2023-05-18T01:49:23.081Z,4.05
2023-05-18T01:51:50.880Z,3.67
2023-05-18T01:54:22.932Z,3.75
2023-05-18T01:56:52.567Z,3.50
2023-05-18T01:59:19.276Z,3.42
2023-05-18T02:01:47.063Z,4.07
2023-05-18T02:04:13.662Z,3.97
2023-05-18T02:06:40.253Z,4.20
2023-05-18T02:09:07.102Z,3.73
2023-05-18T02:11:33.928Z,3.77
2023-05-18T02:14:00.924Z,3.97
2023-05-18T02:16:27.930Z,3.78
2023-05-18T02:18:55.407Z,3.87
2023-05-18T02:21:22.275Z,4.13
2023-05-18T02:23:49.155Z,4.07
2023-05-18T02:26:16.101Z,3.80
2023-05-18T02:28:42.627Z,3.97
2023-05-18T02:31:11.942Z,3.78
2023-05-18T02:33:42.430Z,3.72
2023-05-18T02:36:10.305Z,3.60
2023-05-18T02:38:38.993Z,4.05
2023-05-18T02:41:06.424Z,3.87
2023-05-18T02:43:33.054Z,3.85
2023-05-18T02:45:59.981Z,4.10
2023-05-18T02:48:27.209Z,3.90
2023-05-18T02:50:54.730Z,3.78
2023-05-18T02:53:21.830Z,4.28
2023-05-18T02:55:50.603Z,4.00
2023-05-18T02:58:17.425Z,4.30
2023-05-18T03:00:44.017Z,4.07
2023-05-18T03:03:11.103Z,4.07
2023-05-18T03:05:37.792Z,4.38
2023-05-18T03:08:05.658Z,3.90
2023-05-18T03:10:32.434Z,4.53
2023-05-18T03:12:58.920Z,3.93
2023-05-18T03:15:25.474Z,3.97
2023-05-18T03:17:52.197Z,4.07
2023-05-18T03:20:21.343Z,3.90
2023-05-18T03:22:47.825Z,3.90
2023-05-18T03:25:15.279Z,4.20
2023-05-18T03:27:41.807Z,4.00
2023-05-18T03:30:09.483Z,3.90
2023-05-18T03:32:37.389Z,4.10
2023-05-18T03:35:05.045Z,4.50
2023-05-18T03:37:31.649Z,4.77
2023-05-18T03:40:11.133Z,4.20
2023-05-18T03:42:38.946Z,4.13
2023-05-18T03:45:06.411Z,4.40
2023-05-18T03:47:34.107Z,4.03
2023-05-18T03:50:00.729Z,4.60
2023-05-18T03:52:30.181Z,4.33
2023-05-18T03:54:56.761Z,4.40
2023-05-18T03:57:24.899Z,4.60
2023-05-18T03:59:51.782Z,3.87
2023-05-18T04:02:18.329Z,4.40
2023-05-18T04:04:46.182Z,3.83
2023-05-18T04:07:22.252Z,4.23
2023-05-18T04:09:49.297Z,4.50
2023-05-18T04:12:16.151Z,4.07
2023-05-18T04:14:42.898Z,4.10
2023-05-18T04:17:10.139Z,4.32
2023-05-18T04:19:38.024Z,4.17
2023-05-18T04:22:08.805Z,3.97
2023-05-18T04:24:36.363Z,3.87
2023-05-18T04:27:03.912Z,4.00
2023-05-18T04:29:30.571Z,4.57
2023-05-18T04:32:02.744Z,4.33
2023-05-18T04:34:30.498Z,4.63
2023-05-18T04:37:00.152Z,3.90
2023-05-18T04:39:27.602Z,4.20
2023-05-18T04:41:58.268Z,4.13
2023-05-18T04:44:27.525Z,4.47
2023-05-18T04:46:57.780Z,3.95
2023-05-18T04:49:26.332Z,3.97
2023-05-18T04:51:59.248Z,4.00
2023-05-18T04:54:28.548Z,4.00
2023-05-18T04:56:55.099Z,3.80
2023-05-18T04:59:26.239Z,4.18
2023-05-18T05:01:53.812Z,3.72
2023-05-18T05:04:21.552Z,3.58
2023-05-18T05:06:48.532Z,3.90
2023-05-18T05:09:15.162Z,3.88
2023-05-18T05:11:42.224Z,3.88
2023-05-18T05:14:08.972Z,3.70
2023-05-18T05:16:38.690Z,3.10
2023-05-18T05:19:05.694Z,4.13
2023-05-18T05:21:32.349Z,3.63
2023-05-18T05:23:58.933Z,3.45
2023-05-18T05:26:26.496Z,3.00
2023-05-18T05:28:53.280Z,3.33
2023-05-18T05:31:20.034Z,3.17
2023-05-18T05:33:47.007Z,2.88
2023-05-18T05:36:13.471Z,3.25
2023-05-18T05:38:39.958Z,3.08
2023-05-18T05:41:06.612Z,3.22
2023-05-18T05:43:33.174Z,2.72
2023-05-18T05:45:59.753Z,3.40
2023-05-18T05:48:26.834Z,2.45
2023-05-18T05:50:53.328Z,3.28
2023-05-18T05:53:21.169Z,2.95
2023-05-18T05:55:47.809Z,2.80
2023-05-18T05:58:14.383Z,2.88
2023-05-18T06:00:40.977Z,3.22
2023-05-18T06:03:07.993Z,2.50
2023-05-18T06:05:34.900Z,2.85
2023-05-18T06:08:03.543Z,2.85
2023-05-18T06:10:31.135Z,2.85
2023-05-18T06:12:57.720Z,2.78
2023-05-18T06:15:24.256Z,3.22
2023-05-18T06:17:50.856Z,2.78
2023-05-18T06:20:17.578Z,2.70
2023-05-18T06:22:44.733Z,2.78
2023-05-18T06:25:11.368Z,2.95
2023-05-18T06:27:38.324Z,2.80
2023-05-18T06:30:05.849Z,2.72
2023-05-18T06:32:32.360Z,2.80
2023-05-18T06:34:59.195Z,2.50
2023-05-18T06:37:25.763Z,2.95
2023-05-18T06:39:52.238Z,2.72
2023-05-18T06:42:18.838Z,2.80
2023-05-18T06:44:45.685Z,2.95
2023-05-18T06:47:12.647Z,3.10
2023-05-18T06:49:39.422Z,2.72
2023-05-18T06:59:36.878Z,2.65
2023-05-18T07:02:04.068Z,2.55
2023-05-18T07:04:30.981Z,2.80
2023-05-18T07:06:57.564Z,2.85
2023-05-18T07:09:24.389Z,2.47
2023-05-18T07:11:50.980Z,3.13
2023-05-18T07:14:17.713Z,2.45
2023-05-18T07:16:47.045Z,2.60
2023-05-18T07:19:14.636Z,2.50
2023-05-18T07:21:41.341Z,3.08
2023-05-18T07:24:08.109Z,2.38
2023-05-18T07:26:34.855Z,2.80
2023-05-18T07:29:01.551Z,2.80
2023-05-18T07:31:28.310Z,2.53
2023-05-18T07:33:54.937Z,2.60
2023-05-18T07:36:22.083Z,2.63
2023-05-18T07:38:55.320Z,2.90
2023-05-18T07:41:22.939Z,2.60
2023-05-18T07:43:51.684Z,2.88
2023-05-18T07:46:18.895Z,2.92
2023-05-18T07:48:46.426Z,2.70
2023-05-18T07:51:13.178Z,3.03
2023-05-18T07:53:42.075Z,2.38
2023-05-18T07:56:09.314Z,2.60
2023-05-18T07:58:36.762Z,2.83
2023-05-18T08:01:05.611Z,2.60
2023-05-18T08:03:32.306Z,2.60
2023-05-18T08:06:01.107Z,2.83
2023-05-18T08:08:28.808Z,2.70
2023-05-18T08:10:57.296Z,2.60
2023-05-18T08:13:23.924Z,3.00
2023-05-18T08:15:59.248Z,2.60
2023-05-18T08:18:39.019Z,2.30
2023-05-18T08:21:08.181Z,2.60
2023-05-18T08:23:35.308Z,2.30
2023-05-18T08:26:03.914Z,2.50
2023-05-18T08:28:31.410Z,2.50
2023-05-18T08:31:03.958Z,2.13
2023-05-18T08:33:32.487Z,2.45
2023-05-18T08:35:59.214Z,2.83
2023-05-18T08:38:25.877Z,2.47
2023-05-18T08:41:07.582Z,2.60
2023-05-18T08:43:38.023Z,2.55
2023-05-18T08:46:21.877Z,2.10
2023-05-18T08:48:51.902Z,2.40
2023-05-18T08:51:21.142Z,2.15
2023-05-18T08:53:54.858Z,2.30
2023-05-18T08:56:24.213Z,2.53
2023-05-18T08:58:55.073Z,2.13
2023-05-18T09:01:28.076Z,2.63
2023-05-18T09:03:58.178Z,2.40
2023-05-18T09:06:26.213Z,2.38
2023-05-18T09:08:54.293Z,2.38
2023-05-18T09:11:22.645Z,2.58
2023-05-18T09:13:51.042Z,2.53
2023-05-18T09:16:18.550Z,2.55
2023-05-18T09:18:45.956Z,2.40
2023-05-18T09:21:12.632Z,2.60
2023-05-18T09:23:41.043Z,2.47
2023-05-18T09:26:11.439Z,2.65
2023-05-18T09:28:40.148Z,2.35
2023-05-18T09:31:16.516Z,2.30
2023-05-18T09:33:44.868Z,2.10
2023-05-18T09:36:15.561Z,2.50
2023-05-18T09:38:45.651Z,2.17
2023-05-18T09:41:15.121Z,2.72
2023-05-18T09:43:43.752Z,2.45
2023-05-18T09:46:11.867Z,2.45
2023-05-18T09:48:43.977Z,2.42
2023-05-18T09:51:16.589Z,2.30
2023-05-18T09:53:48.118Z,2.60
2023-05-18T09:56:18.158Z,2.13
2023-05-18T09:58:45.659Z,2.20
2023-05-18T10:01:12.272Z,2.90
2023-05-18T10:03:38.983Z,2.30
2023-05-18T10:06:07.633Z,2.47
2023-05-18T10:08:35.612Z,2.60
2023-05-18T10:11:02.543Z,2.28
2023-05-18T10:13:31.892Z,2.40
2023-05-18T10:16:04.273Z,2.67
2023-05-18T10:18:36.048Z,2.50
2023-05-18T10:21:05.293Z,2.35
2023-05-18T10:23:33.813Z,2.53
2023-05-18T10:26:00.775Z,2.47
2023-05-18T10:28:31.419Z,2.50
2023-05-18T10:30:59.417Z,2.15
2023-05-18T10:33:31.242Z,2.50
2023-05-18T10:35:58.218Z,2.50
2023-05-18T10:38:27.344Z,2.40
2023-05-18T10:41:00.518Z,2.42
2023-05-18T10:43:37.487Z,2.25
2023-05-18T10:46:07.498Z,2.58
2023-05-18T10:48:39.035Z,2.60
2023-05-18T10:51:07.537Z,2.10
2023-05-18T10:53:34.322Z,2.38
2023-05-18T10:56:01.844Z,2.53
2023-05-18T10:58:30.757Z,2.40
2023-05-18T11:00:59.589Z,2.00
2023-05-18T11:03:28.619Z,2.47
2023-05-18T11:06:10.594Z,2.60
2023-05-18T11:08:47.213Z,2.22
2023-05-18T11:11:15.946Z,2.30
2023-05-18T11:13:48.164Z,2.50
2023-05-18T11:16:18.982Z,2.03
2023-05-18T11:18:49.920Z,2.35
2023-05-18T11:21:34.827Z,2.78
2023-05-18T11:24:25.714Z,2.25
2023-05-18T11:26:57.808Z,2.60
2023-05-18T11:29:40.677Z,2.38
2023-05-18T11:32:29.723Z,2.08
2023-05-18T11:34:58.283Z,2.45
2023-05-18T11:37:41.026Z,2.50
2023-05-18T11:40:48.942Z,2.63
2023-05-18T11:43:24.090Z,2.58
2023-05-18T11:45:53.743Z,2.20
2023-05-18T11:48:27.855Z,2.20
2023-05-18T11:50:55.802Z,2.30
2023-05-18T11:53:24.986Z,2.50
2023-05-18T11:55:54.972Z,2.45
2023-05-18T11:58:24.472Z,2.22
2023-05-18T12:00:51.674Z,2.55
2023-05-18T12:03:23.359Z,3.17
2023-05-18T12:05:50.373Z,2.25
2023-05-18T12:08:20.715Z,2.40
2023-05-18T12:10:50.565Z,2.45
2023-05-18T12:13:17.698Z,2.45
2023-05-18T12:15:45.662Z,2.72
2023-05-18T12:18:12.591Z,2.10
2023-05-18T12:20:40.507Z,2.70
2023-05-18T12:23:07.005Z,2.35
2023-05-18T12:25:33.846Z,2.20
2023-05-18T12:28:01.166Z,2.40
2023-05-18T12:30:35.821Z,2.25
2023-05-18T12:33:03.825Z,2.28
2023-05-18T12:35:31.231Z,2.05
2023-05-18T12:38:02.781Z,2.45
2023-05-18T12:40:49.251Z,2.00
2023-05-18T12:43:15.814Z,2.13
2023-05-18T12:45:44.850Z,2.13
2023-05-18T12:48:13.259Z,2.00
2023-05-18T12:50:47.684Z,2.28
2023-05-18T12:53:14.482Z,1.95
2023-05-18T12:55:41.630Z,2.40
2023-05-18T12:58:19.733Z,2.30
2023-05-18T13:00:48.014Z,1.90
2023-05-18T13:03:16.870Z,2.10
2023-05-18T13:05:45.826Z,2.10
2023-05-18T13:08:19.008Z,2.05
2023-05-18T13:10:46.230Z,2.42
2023-05-18T13:13:16.817Z,2.10
2023-05-18T13:15:44.483Z,2.10
2023-05-18T13:18:12.030Z,2.10
2023-05-18T13:20:49.661Z,1.70
2023-05-18T13:23:19.176Z,2.40
2023-05-18T13:25:48.797Z,1.88
2023-05-18T13:28:17.115Z,2.17
2023-05-18T13:30:45.414Z,2.10
2023-05-18T13:33:12.405Z,2.20
2023-05-18T13:35:44.018Z,2.22
2023-05-18T13:38:12.634Z,2.22
2023-05-18T13:40:40.432Z,2.20
2023-05-18T13:43:07.167Z,2.17
2023-05-18T13:45:35.954Z,2.38
2023-05-18T13:48:09.219Z,2.20
2023-05-18T13:50:36.914Z,2.47
2023-05-18T13:53:03.617Z,2.50
2023-05-18T13:55:30.775Z,2.10
2023-05-18T13:57:57.876Z,2.38
2023-05-18T14:00:24.664Z,2.17
2023-05-18T14:02:51.359Z,2.00
2023-05-18T14:05:18.062Z,2.70
2023-05-18T14:07:44.862Z,2.35
2023-05-18T14:10:13.212Z,2.20
2023-05-18T14:12:42.475Z,2.50
2023-05-18T14:15:10.210Z,2.50
2023-05-18T14:17:37.050Z,1.92
2023-05-18T14:20:07.096Z,2.30
2023-05-18T14:22:33.872Z,2.08
2023-05-18T14:25:01.008Z,2.40
2023-05-18T14:27:28.315Z,2.20
2023-05-18T14:29:55.408Z,2.00
2023-05-18T14:32:22.097Z,2.17
2023-05-18T14:34:55.367Z,2.00
2023-05-18T14:37:22.122Z,2.38
2023-05-18T14:39:48.703Z,2.80
2023-05-18T14:42:15.268Z,2.38
2023-05-18T14:44:41.940Z,2.03
2023-05-18T14:47:09.612Z,2.22
2023-05-18T14:49:36.485Z,2.17
2023-05-18T14:52:03.060Z,2.30
2023-05-18T14:54:30.709Z,2.00
2023-05-18T14:56:57.497Z,2.40
2023-05-18T14:59:24.033Z,2.22
2023-05-18T15:01:50.700Z,2.10
2023-05-18T15:04:19.230Z,2.20
2023-05-18T15:06:46.058Z,1.92
2023-05-18T15:09:12.639Z,2.20
2023-05-18T15:11:39.122Z,2.00
2023-05-18T15:14:05.817Z,2.38
2023-05-18T15:16:32.540Z,2.42
2023-05-18T15:18:59.270Z,2.20
2023-05-18T15:21:25.938Z,2.15
2023-05-18T15:23:52.509Z,2.10
2023-05-18T15:26:19.063Z,2.10
2023-05-18T15:28:47.257Z,2.30
2023-05-18T15:31:14.102Z,2.00
2023-05-18T15:33:43.347Z,2.35
2023-05-18T15:36:09.910Z,1.77
2023-05-18T15:38:36.629Z,2.45
2023-05-18T15:41:03.165Z,2.13
2023-05-18T15:43:30.466Z,2.22
2023-05-18T15:45:58.101Z,2.40
2023-05-18T15:48:24.772Z,2.00
2023-05-18T15:50:51.355Z,2.03
2023-05-18T15:53:18.034Z,2.08
2023-05-18T15:55:44.602Z,2.30
2023-05-18T15:58:12.979Z,2.10
2023-05-18T16:00:39.586Z,2.30
2023-05-18T16:03:06.442Z,1.90
2023-05-18T16:05:33.129Z,2.10
2023-05-18T16:07:59.971Z,2.15
2023-05-18T16:10:26.566Z,2.50
2023-05-18T16:12:53.185Z,2.40
2023-05-18T16:15:24.186Z,2.05
2023-05-18T16:17:50.918Z,2.17
2023-05-18T16:20:18.474Z,2.25
2023-05-18T16:22:46.786Z,2.15
2023-05-18T16:25:13.498Z,2.25
2023-05-18T16:27:40.049Z,2.17
2023-05-18T16:30:07.363Z,2.20
2023-05-18T16:32:33.971Z,2.15
2023-05-18T16:35:01.299Z,2.17
2023-05-18T16:37:28.424Z,2.30
2023-05-18T16:39:55.102Z,2.35
2023-05-18T16:42:22.866Z,2.53
2023-05-18T16:44:49.538Z,2.47
2023-05-18T16:47:16.130Z,2.20
2023-05-18T16:49:45.298Z,2.20
2023-05-18T16:52:12.032Z,2.30
2023-05-18T16:54:38.637Z,2.10
2023-05-18T16:57:06.300Z,2.30
2023-05-18T16:59:34.430Z,2.10
2023-05-18T17:02:01.795Z,2.10
2023-05-18T17:04:28.505Z,2.03
2023-05-18T17:06:55.167Z,2.47
2023-05-18T17:09:21.667Z,2.00
2023-05-18T17:11:48.479Z,2.00
2023-05-18T17:14:15.178Z,2.20
2023-05-18T17:16:41.877Z,2.17
2023-05-18T17:19:08.610Z,2.30
2023-05-18T17:21:38.491Z,2.53
2023-05-18T17:24:05.337Z,2.17
2023-05-18T17:26:33.350Z,2.40
2023-05-18T17:29:00.130Z,2.42
2023-05-18T17:31:27.042Z,2.75
2023-05-18T17:33:54.601Z,2.35
2023-05-18T17:36:21.352Z,2.25
2023-05-18T17:38:47.980Z,2.03
2023-05-18T17:41:14.649Z,2.30
2023-05-18T17:43:41.292Z,2.40
2023-05-18T17:46:08.149Z,2.67
2023-05-18T17:48:34.670Z,2.13
2023-05-18T17:51:01.193Z,2.13
2023-05-18T17:53:27.806Z,2.35
2023-05-18T17:55:54.296Z,2.30
2023-05-18T17:58:21.081Z,2.28
2023-05-18T18:00:47.649Z,2.05
2023-05-18T18:03:14.483Z,2.20
2023-05-18T18:05:42.134Z,2.08
2023-05-18T18:08:08.752Z,1.95
2023-05-18T18:10:35.768Z,2.17
2023-05-18T18:13:02.568Z,2.30
2023-05-18T18:15:29.209Z,1.92
2023-05-18T18:17:56.694Z,2.20
2023-05-18T18:20:23.653Z,2.20
2023-05-18T18:22:50.159Z,2.50
2023-05-18T18:25:16.836Z,2.40
2023-05-18T18:27:43.704Z,2.10
2023-05-18T18:30:10.762Z,2.17
2023-05-18T18:32:37.601Z,2.13
2023-05-18T18:35:04.548Z,2.20
2023-05-18T18:37:31.498Z,1.85
2023-05-18T18:39:58.206Z,2.30
2023-05-18T18:42:25.002Z,2.30
2023-05-18T18:44:56.484Z,2.13
2023-05-18T18:47:23.568Z,2.05
2023-05-18T18:49:50.383Z,2.05
2023-05-18T18:52:18.299Z,2.33
2023-05-18T18:54:46.055Z,2.30
2023-05-18T18:57:12.595Z,2.08
2023-05-18T18:59:39.490Z,2.40
2023-05-18T19:02:06.420Z,2.42
2023-05-18T19:04:33.195Z,2.20
2023-05-18T19:07:02.868Z,2.08
2023-05-18T19:09:32.720Z,2.40
2023-05-18T19:11:59.408Z,2.00
2023-05-18T19:14:26.045Z,2.30
2023-05-18T19:16:53.008Z,2.28
2023-05-18T19:19:19.540Z,2.40
2023-05-18T19:21:46.908Z,2.13
2023-05-18T19:24:13.406Z,2.08
2023-05-18T19:26:41.072Z,2.05
2023-05-18T19:29:07.754Z,2.60
2023-05-18T19:31:35.920Z,2.30
2023-05-18T19:34:02.643Z,2.40
2023-05-18T19:36:29.323Z,2.30
2023-05-18T19:38:56.034Z,2.40
2023-05-18T19:41:24.726Z,2.40
2023-05-18T19:43:51.559Z,2.63
2023-05-18T19:46:19.278Z,2.53
2023-05-18T19:48:46.083Z,2.20
2023-05-18T19:51:12.674Z,2.45
2023-05-18T19:53:39.436Z,2.72
2023-05-18T19:56:06.109Z,2.75
2023-05-18T19:58:32.824Z,2.38
2023-05-18T20:00:59.763Z,2.80
2023-05-18T20:03:27.513Z,2.60
2023-05-18T20:05:56.052Z,2.63
2023-05-18T20:08:22.984Z,2.70
2023-05-18T20:10:49.651Z,2.90
2023-05-18T20:13:16.304Z,2.63
2023-05-18T20:15:43.787Z,2.80
2023-05-18T20:18:10.560Z,2.90
2023-05-18T20:20:37.666Z,2.88
2023-05-18T20:23:07.571Z,3.33
2023-05-18T20:25:35.225Z,2.67
2023-05-18T20:28:06.844Z,2.88
2023-05-18T20:30:34.397Z,3.00
2023-05-18T20:33:03.673Z,2.60
2023-05-18T20:35:30.305Z,2.75
2023-05-18T20:37:57.525Z,3.10
2023-05-18T20:40:24.363Z,3.08
2023-05-18T20:42:54.239Z,2.90
2023-05-18T20:45:22.393Z,3.13
2023-05-18T20:47:52.493Z,3.28
2023-05-18T20:50:20.391Z,3.10
2023-05-18T20:52:47.457Z,3.10
2023-05-18T20:55:14.882Z,3.22
2023-05-18T20:57:44.889Z,2.85
2023-05-18T21:00:12.976Z,3.20
2023-05-18T21:02:41.594Z,3.40
2023-05-18T21:05:08.648Z,3.42
2023-05-18T21:07:37.899Z,3.40
2023-05-18T21:10:04.934Z,3.60
2023-05-18T21:12:31.919Z,3.25
2023-05-18T21:14:58.469Z,3.42
2023-05-18T21:17:25.557Z,3.53
2023-05-18T21:19:52.699Z,3.67
2023-05-18T21:22:19.940Z,3.63
2023-05-18T21:24:49.593Z,3.63
2023-05-18T21:27:16.193Z,3.83
2023-05-18T21:29:48.720Z,4.05
2023-05-18T21:32:15.660Z,3.92
2023-05-18T21:34:43.799Z,3.67
2023-05-18T21:37:10.915Z,3.78
2023-05-18T21:39:37.748Z,4.15
2023-05-18T21:42:04.660Z,4.50
2023-05-18T21:44:31.235Z,4.03
2023-05-18T21:46:58.062Z,3.95
2023-05-18T21:49:25.210Z,3.58
2023-05-18T21:51:51.928Z,3.90
2023-05-18T21:54:18.558Z,3.88
2023-05-18T21:56:45.325Z,3.97
2023-05-18T21:59:11.809Z,3.80
2023-05-18T22:01:38.361Z,4.00
2023-05-18T22:04:07.108Z,3.70
2023-05-18T22:06:33.707Z,4.00
2023-05-18T22:09:00.260Z,3.95
2023-05-18T22:11:26.984Z,3.95
2023-05-18T22:13:54.245Z,3.38
2023-05-18T22:16:21.265Z,3.63
2023-05-18T22:18:48.045Z,4.13
2023-05-18T22:21:14.582Z,3.72
2023-05-18T22:23:41.144Z,4.25
2023-05-18T22:26:08.312Z,3.92
2023-05-18T22:28:35.046Z,4.15
2023-05-18T22:31:01.611Z,4.10
2023-05-18T22:33:28.509Z,4.78
2023-05-18T22:35:55.174Z,4.30
2023-05-18T22:38:21.687Z,4.28
2023-05-18T22:40:53.830Z,4.32
2023-05-18T22:43:23.545Z,4.45
2023-05-18T22:45:50.392Z,5.30
2023-05-18T22:48:17.024Z,4.45
2023-05-18T22:50:43.698Z,4.00
2023-05-18T22:53:10.433Z,4.05
2023-05-18T22:55:37.057Z,4.53
2023-05-18T22:58:03.813Z,4.43
2023-05-18T23:00:30.524Z,4.47
2023-05-18T23:02:57.253Z,4.50
2023-05-18T23:05:23.910Z,3.92
2023-05-18T23:07:52.179Z,4.80
2023-05-18T23:10:18.806Z,4.95
2023-05-18T23:12:46.277Z,4.90
2023-05-18T23:15:12.970Z,4.50
2023-05-18T23:17:39.547Z,4.28
2023-05-18T23:20:06.945Z,4.50
2023-05-18T23:22:37.574Z,4.65
2023-05-18T23:25:08.537Z,4.63
2023-05-18T23:27:35.570Z,4.38
2023-05-18T23:30:02.346Z,4.57
2023-05-18T23:32:29.230Z,4.90
2023-05-18T23:35:05.663Z,4.45
2023-05-18T23:37:33.274Z,4.45
2023-05-18T23:40:02.336Z,4.85
2023-05-18T23:42:29.259Z,4.72
2023-05-18T23:44:57.312Z,4.60
2023-05-18T23:47:24.125Z,4.75
2023-05-18T23:49:50.994Z,4.65
2023-05-18T23:52:21.577Z,4.57
2023-05-18T23:54:52.785Z,4.43
2023-05-18T23:57:19.726Z,5.35
2023-05-18T23:59:46.792Z,4.63
